Avon Lake, Ohio
Current Conditions -  °F | °C
As of 8:59 PM on Monday 20 Oct 2014 (Local Time) from KCLE Reporting Station
Light Rain Light Rain  
Wind Chill: 11°   Ceiling: 1300
Heat Index: 11°   Visibility: 5mi
Dew Point: 10°   Wind: 9mph
Humidity: 93%   Direction: 250°WSW
Pressure: 29.87"   Gusts: NA
Location:  41.51°N, 82.02°W
Report Text: KCLE 210059Z 25008KT 5SM -RA BR SCT009 BKN013 OVC020 11/10 A2987 RMK AO2 P0000 T01110100
Loading
Personal Weather Stations






























Interactive Weather Map
Tropical Storm Tracking
New forecast layout! Learn more

10-Day Weather Forecast

Advertisements
Track Severe Weather on mobile